createdAt,value
2022-10-09T00:00:16.305Z,8.30
2022-10-09T00:02:44.459Z,9.10
2022-10-09T00:05:12.778Z,7.60
2022-10-09T00:07:40.855Z,6.20
2022-10-09T00:10:10.629Z,8.07
2022-10-09T00:12:38.944Z,7.87
2022-10-09T00:15:07.853Z,7.77
2022-10-09T00:17:35.943Z,7.60
2022-10-09T00:20:04.492Z,6.50
2022-10-09T00:22:32.512Z,7.43
2022-10-09T00:25:00.628Z,6.97
2022-10-09T00:27:30.029Z,6.63
2022-10-09T00:29:58.030Z,7.37
2022-10-09T00:32:26.246Z,6.23
2022-10-09T00:34:54.447Z,5.97
2022-10-09T00:37:22.536Z,7.57
2022-10-09T00:39:50.541Z,7.70
2022-10-09T00:42:18.536Z,7.53
2022-10-09T00:44:54.315Z,7.33
2022-10-09T00:47:26.618Z,6.67
2022-10-09T00:49:56.372Z,5.67
2022-10-09T00:52:25.295Z,7.70
2022-10-09T00:54:54.237Z,6.10
2022-10-09T00:57:22.482Z,6.90
2022-10-09T00:59:51.942Z,8.27
2022-10-09T01:02:20.102Z,10.40
2022-10-09T01:04:48.322Z,9.77
2022-10-09T01:07:25.865Z,14.70
2022-10-09T01:09:58.262Z,10.87
2022-10-09T01:12:33.237Z,17.77
2022-10-09T01:15:09.471Z,10.60
2022-10-09T01:17:42.211Z,21.07
2022-10-09T01:20:29.854Z,19.87
2022-10-09T01:27:31.970Z,10.77
2022-10-09T01:30:02.150Z,24.87
2022-10-09T01:32:32.805Z,14.53
2022-10-09T01:35:02.197Z,20.93
2022-10-09T01:37:31.979Z,16.73
2022-10-09T01:40:00.644Z,17.03
2022-10-09T01:42:30.547Z,17.57
2022-10-09T01:44:58.491Z,19.13
2022-10-09T01:47:26.637Z,14.10
2022-10-09T01:49:59.245Z,15.10
2022-10-09T01:52:37.076Z,12.30
2022-10-09T01:55:21.445Z,12.93
2022-10-09T01:57:53.697Z,12.23
2022-10-09T02:00:22.135Z,14.60
2022-10-09T02:02:51.600Z,9.60
2022-10-09T02:05:22.555Z,8.90
2022-10-09T02:07:50.799Z,8.67
2022-10-09T02:10:19.883Z,9.20
2022-10-09T02:12:52.092Z,9.07
2022-10-09T02:15:21.895Z,8.03
2022-10-09T02:17:50.981Z,11.57
2022-10-09T02:20:23.140Z,9.10
2022-10-09T02:22:51.439Z,6.40
2022-10-09T02:25:19.743Z,9.37
2022-10-09T02:27:48.390Z,11.20
2022-10-09T02:30:17.137Z,8.17
2022-10-09T02:32:46.896Z,6.00
2022-10-09T02:35:15.286Z,8.10
2022-10-09T02:37:43.285Z,6.07
2022-10-09T02:40:12.233Z,11.83
2022-10-09T02:42:40.208Z,5.50
2022-10-09T02:45:09.971Z,13.50
2022-10-09T02:47:38.645Z,17.27
2022-10-09T02:50:09.574Z,10.80
2022-10-09T02:52:37.668Z,23.90
2022-10-09T02:55:06.552Z,27.73
2022-10-09T02:57:34.560Z,21.20
2022-10-09T03:00:02.889Z,23.90
2022-10-09T03:02:31.135Z,22.00
2022-10-09T03:04:59.390Z,26.87
2022-10-09T03:07:28.904Z,25.07
2022-10-09T03:09:58.442Z,34.83
2022-10-09T03:12:26.779Z,38.67
2022-10-09T03:14:55.031Z,17.40
2022-10-09T03:17:23.324Z,45.63
2022-10-09T03:19:51.708Z,52.43
2022-10-09T03:22:20.092Z,43.77
2022-10-09T03:24:49.693Z,90.97
2022-10-09T03:27:17.865Z,138.30
2022-10-09T03:29:46.207Z,104.70
2022-10-09T03:32:14.598Z,149.03
2022-10-09T03:34:42.769Z,122.93
2022-10-09T03:37:10.773Z,203.60
2022-10-09T03:39:38.754Z,191.60
2022-10-09T03:42:08.240Z,176.27
2022-10-09T03:44:36.407Z,168.40
2022-10-09T03:47:04.492Z,176.60
2022-10-09T03:49:32.688Z,199.87
2022-10-09T03:52:00.838Z,199.50
2022-10-09T03:54:28.881Z,207.37
2022-10-09T03:56:56.904Z,209.70
2022-10-09T03:59:26.332Z,204.70
2022-10-09T04:01:54.551Z,189.40
2022-10-09T04:04:22.637Z,184.17
2022-10-09T04:06:50.820Z,217.27
2022-10-09T04:09:18.836Z,235.07
2022-10-09T04:11:46.797Z,166.30
2022-10-09T04:14:14.884Z,238.10
2022-10-09T04:16:44.418Z,171.73
2022-10-09T04:19:13.184Z,221.13
2022-10-09T04:21:41.669Z,184.07
2022-10-09T04:24:10.104Z,200.17
2022-10-09T04:26:38.599Z,236.20
2022-10-09T04:29:07.266Z,208.27
2022-10-09T04:31:35.868Z,194.40
2022-10-09T04:34:05.939Z,235.77
2022-10-09T04:36:34.265Z,186.43
2022-10-09T04:39:02.652Z,238.23
2022-10-09T04:41:34.614Z,243.80
2022-10-09T04:44:05.526Z,218.23
2022-10-09T04:46:33.604Z,271.17
2022-10-09T04:49:01.614Z,273.33
2022-10-09T04:51:30.967Z,247.53
2022-10-09T04:54:00.783Z,217.77
2022-10-09T04:56:29.006Z,290.37
2022-10-09T04:58:57.019Z,246.27
2022-10-09T05:01:28.102Z,272.13
2022-10-09T05:03:56.391Z,262.00
2022-10-09T05:06:25.416Z,265.80
2022-10-09T05:08:55.741Z,316.13
2022-10-09T05:11:25.571Z,256.93
2022-10-09T05:13:56.052Z,261.10
2022-10-09T05:16:26.708Z,302.17
2022-10-09T05:18:57.035Z,323.60
2022-10-09T05:21:25.938Z,347.43
2022-10-09T05:23:56.118Z,320.70
2022-10-09T05:26:25.963Z,327.83
2022-10-09T05:28:54.165Z,275.97
2022-10-09T05:31:24.455Z,329.33
2022-10-09T05:33:52.922Z,287.63
2022-10-09T05:36:21.051Z,331.83
2022-10-09T05:38:49.403Z,377.30
2022-10-09T05:41:20.072Z,339.83
2022-10-09T05:43:49.439Z,338.23
2022-10-09T05:46:19.011Z,332.30
2022-10-09T05:48:51.749Z,349.53
2022-10-09T05:51:22.240Z,375.93
2022-10-09T05:53:50.918Z,338.30
2022-10-09T05:56:21.471Z,314.33
2022-10-09T05:58:51.937Z,363.83
2022-10-09T06:01:20.545Z,350.63
2022-10-09T06:03:52.074Z,335.20
2022-10-09T06:06:21.393Z,347.27
2022-10-09T06:08:50.020Z,371.00
2022-10-09T06:11:21.170Z,389.83
2022-10-09T06:13:49.741Z,407.73
2022-10-09T06:16:19.452Z,369.97
2022-10-09T06:18:49.571Z,436.60
2022-10-09T06:21:18.308Z,407.40
2022-10-09T06:23:49.663Z,413.03
2022-10-09T06:26:17.772Z,343.90
2022-10-09T06:28:47.568Z,394.47
2022-10-09T06:31:17.639Z,447.43
2022-10-09T06:33:46.830Z,430.30
2022-10-09T06:36:17.259Z,408.03
2022-10-09T06:38:45.472Z,426.20
2022-10-09T06:41:14.958Z,405.83
2022-10-09T06:43:43.861Z,415.67
2022-10-09T06:46:13.760Z,488.93
2022-10-09T06:48:41.997Z,464.13
2022-10-09T06:51:11.829Z,460.43
2022-10-09T06:53:42.804Z,594.23
2022-10-09T06:56:11.469Z,390.40
2022-10-09T06:58:40.219Z,469.00
2022-10-09T07:01:09.841Z,503.80
2022-10-09T07:03:40.938Z,502.57
2022-10-09T07:06:11.215Z,867.07
2022-10-09T07:08:39.975Z,622.63
2022-10-09T07:11:11.917Z,514.50
2022-10-09T07:13:40.256Z,444.37
2022-10-09T07:16:08.568Z,497.03
2022-10-09T07:18:37.366Z,522.47
2022-10-09T07:21:09.033Z,539.00
2022-10-09T07:23:37.669Z,528.30
2022-10-09T07:26:11.762Z,489.67
2022-10-09T07:28:41.259Z,465.87
2022-10-09T07:31:10.201Z,512.40
2022-10-09T07:33:38.666Z,465.80
2022-10-09T07:36:09.017Z,580.37
2022-10-09T07:38:37.264Z,498.83
2022-10-09T07:41:06.941Z,474.27
2022-10-09T07:43:36.108Z,526.60
2022-10-09T07:46:05.870Z,530.67
2022-10-09T07:48:35.243Z,531.07
2022-10-09T07:51:10.512Z,482.57
2022-10-09T07:53:38.778Z,495.73
2022-10-09T07:56:07.408Z,495.17
2022-10-09T07:58:35.569Z,997.47
2022-10-09T08:01:07.599Z,613.40
2022-10-09T08:03:36.279Z,526.77
2022-10-09T08:06:04.668Z,446.87
2022-10-09T08:08:34.229Z,502.50
2022-10-09T08:11:02.690Z,538.23
2022-10-09T08:13:30.712Z,481.53
2022-10-09T08:15:59.588Z,467.67
2022-10-09T08:18:27.710Z,462.60
2022-10-09T08:20:59.681Z,469.13
2022-10-09T08:23:28.120Z,445.73
2022-10-09T08:25:57.686Z,527.47
2022-10-09T08:28:25.920Z,423.97
2022-10-09T08:30:54.106Z,467.03
2022-10-09T08:33:23.512Z,422.57
2022-10-09T08:35:51.938Z,436.03
2022-10-09T08:38:45.007Z,409.47
2022-10-09T08:41:11.438Z,419.50
2022-10-09T08:43:43.688Z,447.73
2022-10-09T08:46:20.575Z,436.17
2022-10-09T08:48:49.831Z,351.23
2022-10-09T08:51:23.300Z,402.90
2022-10-09T08:53:55.777Z,344.53
2022-10-09T08:56:26.479Z,323.17
2022-10-09T08:58:54.548Z,352.90
2022-10-09T09:01:29.229Z,300.73
2022-10-09T09:04:14.095Z,336.63
2022-10-09T09:06:47.706Z,324.83
2022-10-09T09:09:20.654Z,317.37
2022-10-09T09:11:54.086Z,331.53
2022-10-09T09:14:33.269Z,245.23
2022-10-09T09:17:07.482Z,295.23
2022-10-09T09:19:42.346Z,265.37
2022-10-09T09:22:11.719Z,244.43
2022-10-09T09:24:42.048Z,260.63
2022-10-09T09:27:15.784Z,194.80
2022-10-09T09:29:46.295Z,204.60
2022-10-09T09:32:19.067Z,195.50
2022-10-09T09:34:47.351Z,193.07
2022-10-09T09:37:15.825Z,181.03
2022-10-09T09:42:33.965Z,132.03
2022-10-09T09:45:06.019Z,102.33
2022-10-09T09:47:35.570Z,97.63
2022-10-09T09:50:05.765Z,84.63
2022-10-09T09:52:36.512Z,62.37
2022-10-09T09:55:05.406Z,59.07
2022-10-09T09:57:37.227Z,47.40
2022-10-09T10:00:10.785Z,43.67
2022-10-09T10:02:38.797Z,34.10
2022-10-09T10:05:18.848Z,34.23
2022-10-09T10:07:50.027Z,24.00
2022-10-09T10:10:24.689Z,21.27
2022-10-09T10:12:59.987Z,17.23
2022-10-09T10:15:30.233Z,13.07
2022-10-09T10:18:04.098Z,12.50
2022-10-09T10:20:34.000Z,10.00
2022-10-09T10:23:02.319Z,8.53
2022-10-09T10:25:33.461Z,8.63
2022-10-09T10:28:07.278Z,6.50
2022-10-09T10:30:36.339Z,7.00
2022-10-09T10:33:07.402Z,5.50
2022-10-09T10:35:37.836Z,5.50
2022-10-09T10:38:19.315Z,6.10
2022-10-09T10:41:13.474Z,5.40
2022-10-09T10:43:46.102Z,5.60
2022-10-09T10:46:23.773Z,4.83
2022-10-09T10:48:52.267Z,4.70
2022-10-09T10:51:32.451Z,4.73
2022-10-09T10:54:08.694Z,4.20
2022-10-09T10:56:39.536Z,3.90
2022-10-09T10:59:24.671Z,4.63
2022-10-09T11:02:00.723Z,4.33
2022-10-09T11:04:38.519Z,3.70
2022-10-09T11:07:14.579Z,4.57
2022-10-09T11:09:50.520Z,3.90
2022-10-09T11:12:43.710Z,4.23
2022-10-09T11:15:21.200Z,3.80
2022-10-09T11:17:55.831Z,4.00
2022-10-09T11:20:53.493Z,4.23
2022-10-09T11:23:52.364Z,3.60
2022-10-09T11:26:27.935Z,4.70
2022-10-09T11:29:00.568Z,4.23
2022-10-09T11:31:34.328Z,4.23
2022-10-09T11:34:06.882Z,3.90
2022-10-09T11:36:38.243Z,4.27
2022-10-09T11:39:09.303Z,4.20
2022-10-09T11:41:38.209Z,4.30
2022-10-09T11:44:19.647Z,4.60
2022-10-09T11:46:51.147Z,4.70
2022-10-09T11:49:23.682Z,4.67
2022-10-09T11:51:57.035Z,4.40
2022-10-09T11:54:27.424Z,4.20
2022-10-09T11:56:57.498Z,4.80
2022-10-09T11:59:30.099Z,4.23
2022-10-09T12:02:00.789Z,3.70
2022-10-09T12:04:50.575Z,4.30
2022-10-09T12:07:28.818Z,4.10
2022-10-09T12:10:00.728Z,4.00
2022-10-09T12:12:30.376Z,4.63
2022-10-09T12:14:58.439Z,4.10
2022-10-09T12:17:38.424Z,4.17
2022-10-09T12:20:09.320Z,4.33
2022-10-09T12:22:41.424Z,4.40
2022-10-09T12:25:16.909Z,4.40
2022-10-09T12:27:45.888Z,4.23
2022-10-09T12:30:20.681Z,4.23
2022-10-09T12:32:53.606Z,4.00
2022-10-09T12:35:24.000Z,3.87
2022-10-09T12:37:52.366Z,3.90
2022-10-09T12:40:24.591Z,4.10
2022-10-09T12:42:53.971Z,4.00
2022-10-09T12:45:23.759Z,3.80
2022-10-09T12:47:53.990Z,3.83
2022-10-09T12:50:25.102Z,3.60
2022-10-09T12:52:55.139Z,3.60
2022-10-09T12:55:27.761Z,3.57
2022-10-09T12:57:58.474Z,3.93
2022-10-09T13:00:26.569Z,4.00
2022-10-09T13:02:56.459Z,3.97
2022-10-09T13:05:24.700Z,3.70
2022-10-09T13:07:54.157Z,3.80
2022-10-09T13:10:24.066Z,4.07
2022-10-09T13:12:54.340Z,4.30
2022-10-09T13:15:46.597Z,3.93
2022-10-09T13:18:21.943Z,3.60
2022-10-09T13:20:59.762Z,4.10
2022-10-09T13:23:29.916Z,4.20
2022-10-09T13:26:01.213Z,3.90
2022-10-09T13:28:31.766Z,3.47
2022-10-09T13:31:07.323Z,3.60
2022-10-09T13:33:36.925Z,3.40
2022-10-09T13:36:05.100Z,3.40
2022-10-09T13:38:35.086Z,4.07
2022-10-09T13:41:03.641Z,3.80
2022-10-09T13:43:31.746Z,3.30
2022-10-09T13:46:00.188Z,3.47
2022-10-09T13:48:29.497Z,3.30
2022-10-09T13:50:59.894Z,3.40
2022-10-09T13:53:28.962Z,3.60
2022-10-09T13:56:00.760Z,3.90
2022-10-09T13:58:29.519Z,3.93
2022-10-09T14:00:58.159Z,3.40
2022-10-09T14:03:26.190Z,3.60
2022-10-09T14:06:00.460Z,3.40
2022-10-09T14:08:28.605Z,3.20
2022-10-09T14:10:56.985Z,3.30
2022-10-09T14:13:24.992Z,3.60
2022-10-09T14:15:53.218Z,3.40
2022-10-09T14:18:21.337Z,3.33
2022-10-09T14:20:49.354Z,3.67
2022-10-09T14:23:18.737Z,3.40
2022-10-09T14:25:46.709Z,3.33
2022-10-09T14:28:14.768Z,3.40
2022-10-09T14:30:43.401Z,3.10
2022-10-09T14:33:12.579Z,3.20
2022-10-09T14:35:40.710Z,3.50
2022-10-09T14:38:08.725Z,3.23
2022-10-09T14:40:42.768Z,3.40
2022-10-09T14:43:10.971Z,3.20
2022-10-09T14:45:39.334Z,3.83
2022-10-09T14:48:07.401Z,3.40
2022-10-09T14:50:36.669Z,3.70
2022-10-09T14:53:04.859Z,3.60
2022-10-09T14:55:35.540Z,3.97
2022-10-09T14:58:04.875Z,3.63
2022-10-09T15:00:32.984Z,3.67
2022-10-09T15:03:00.970Z,4.30
2022-10-09T15:05:29.134Z,4.93
2022-10-09T15:07:57.151Z,4.17
2022-10-09T15:10:25.173Z,4.50
2022-10-09T15:12:53.194Z,4.80
2022-10-09T15:15:22.645Z,3.53
2022-10-09T15:17:50.849Z,3.70
2022-10-09T15:20:19.083Z,3.20
2022-10-09T15:22:47.125Z,3.80
2022-10-09T15:25:16.722Z,3.37
2022-10-09T15:27:44.918Z,3.83
2022-10-09T15:30:13.621Z,3.50
2022-10-09T15:32:43.045Z,3.70
2022-10-09T15:35:11.265Z,3.57
2022-10-09T15:37:39.387Z,3.77
2022-10-09T15:40:08.534Z,3.40
2022-10-09T15:42:37.266Z,3.70
2022-10-09T15:45:05.898Z,2.93
2022-10-09T15:47:50.553Z,3.20
2022-10-09T15:50:20.749Z,3.20
2022-10-09T15:52:49.036Z,3.07
2022-10-09T15:55:17.417Z,3.00
2022-10-09T15:57:45.394Z,3.73
2022-10-09T16:00:14.540Z,3.13
2022-10-09T16:02:42.588Z,3.50
2022-10-09T16:05:10.842Z,4.30
2022-10-09T16:07:41.363Z,3.80
2022-10-09T16:10:09.906Z,4.00
2022-10-09T16:12:37.948Z,4.53
2022-10-09T16:15:06.689Z,4.10
2022-10-09T16:17:34.772Z,5.73
2022-10-09T16:20:02.885Z,3.90
2022-10-09T16:22:31.103Z,3.40
2022-10-09T16:25:00.486Z,3.63
2022-10-09T16:27:28.546Z,3.73
2022-10-09T16:29:56.560Z,4.07
2022-10-09T16:32:24.574Z,4.63
2022-10-09T16:34:52.562Z,4.47
2022-10-09T16:37:20.582Z,8.93
2022-10-09T16:39:49.446Z,5.43
2022-10-09T16:42:18.872Z,4.50
2022-10-09T16:44:46.908Z,5.07
2022-10-09T16:47:15.087Z,5.37
2022-10-09T16:49:43.147Z,7.17
2022-10-09T16:52:11.248Z,6.80
2022-10-09T16:54:39.943Z,5.03
2022-10-09T16:57:07.989Z,5.17
2022-10-09T16:59:37.427Z,4.67
2022-10-09T17:02:05.620Z,5.40
2022-10-09T17:04:34.302Z,5.63
2022-10-09T17:07:02.372Z,4.90
2022-10-09T17:09:30.790Z,5.13
2022-10-09T17:11:59.118Z,4.87
2022-10-09T17:14:27.156Z,4.57
2022-10-09T17:16:56.562Z,4.90
2022-10-09T17:19:24.652Z,4.63
2022-10-09T17:21:52.737Z,5.47
2022-10-09T17:24:20.810Z,5.20
2022-10-09T17:26:48.871Z,5.00
2022-10-09T17:29:16.943Z,5.00
2022-10-09T17:31:44.982Z,4.73
2022-10-09T17:34:14.563Z,4.93
2022-10-09T17:36:43.584Z,5.50
2022-10-09T17:39:14.488Z,4.60
2022-10-09T17:41:45.666Z,5.03
2022-10-09T17:44:15.133Z,4.20
2022-10-09T17:46:43.645Z,4.80
2022-10-09T17:49:11.895Z,4.53
2022-10-09T17:51:41.528Z,4.93
2022-10-09T17:54:12.498Z,4.60
2022-10-09T17:56:41.089Z,4.50
2022-10-09T17:59:09.593Z,3.93
2022-10-09T18:01:37.826Z,3.80
2022-10-09T18:04:06.066Z,4.27
2022-10-09T18:06:35.626Z,4.40
2022-10-09T18:09:05.900Z,4.73
2022-10-09T18:11:33.970Z,4.80
2022-10-09T18:14:02.029Z,4.70
2022-10-09T18:16:35.761Z,4.53
2022-10-09T18:19:06.345Z,4.50
2022-10-09T18:21:35.723Z,4.80
2022-10-09T18:24:05.861Z,4.10
2022-10-09T18:26:34.646Z,4.40
2022-10-09T18:29:03.364Z,5.13
2022-10-09T18:31:32.137Z,5.97
2022-10-09T18:34:00.571Z,5.40
2022-10-09T18:36:31.612Z,6.30
2022-10-09T18:39:01.806Z,8.03
2022-10-09T18:41:31.421Z,4.50
2022-10-09T18:44:03.183Z,4.60
2022-10-09T18:46:36.153Z,4.50
2022-10-09T18:49:09.202Z,4.50
2022-10-09T18:51:38.329Z,4.33
2022-10-09T18:54:07.847Z,4.30
2022-10-09T18:56:38.215Z,4.30
2022-10-09T18:59:08.450Z,4.53
2022-10-09T19:01:36.691Z,4.70
2022-10-09T19:04:04.847Z,4.97
2022-10-09T19:06:32.891Z,5.07
2022-10-09T19:09:01.594Z,4.57
2022-10-09T19:11:30.421Z,4.90
2022-10-09T19:14:00.807Z,4.80
2022-10-09T19:16:29.536Z,4.53
2022-10-09T19:18:57.581Z,5.03
2022-10-09T19:21:26.019Z,6.07
2022-10-09T19:23:54.757Z,6.70
2022-10-09T19:26:23.451Z,4.70
2022-10-09T19:28:51.948Z,5.00
2022-10-09T19:31:21.448Z,6.23
2022-10-09T19:33:49.454Z,6.60
2022-10-09T19:36:17.593Z,5.60
2022-10-09T19:38:45.656Z,6.67
2022-10-09T19:41:15.491Z,6.27
2022-10-09T19:43:43.915Z,6.30
2022-10-09T19:46:14.302Z,5.83
2022-10-09T19:48:44.132Z,6.53
2022-10-09T19:51:14.064Z,7.40
2022-10-09T19:53:42.333Z,7.50
2022-10-09T19:56:11.639Z,7.57
2022-10-09T19:58:41.206Z,10.77
2022-10-09T20:01:11.276Z,7.13
2022-10-09T20:03:41.413Z,6.03
2022-10-09T20:06:11.335Z,6.53
2022-10-09T20:08:40.886Z,6.60
2022-10-09T20:11:12.437Z,5.73
2022-10-09T20:13:41.893Z,5.53
2022-10-09T20:16:12.370Z,6.20
2022-10-09T20:18:42.297Z,6.60
2022-10-09T20:21:12.953Z,6.40
2022-10-09T20:23:41.248Z,6.90
2022-10-09T20:26:12.459Z,5.60
2022-10-09T20:28:40.927Z,5.17
2022-10-09T20:31:11.745Z,5.07
2022-10-09T20:33:40.132Z,6.47
2022-10-09T20:36:17.521Z,5.90
2022-10-09T20:38:45.522Z,5.20
2022-10-09T20:41:13.524Z,5.10
2022-10-09T20:43:41.582Z,5.77
2022-10-09T20:46:10.346Z,5.47
2022-10-09T20:48:38.385Z,5.90
2022-10-09T20:51:06.839Z,5.67
2022-10-09T20:53:36.395Z,5.70
2022-10-09T20:56:06.699Z,5.83
2022-10-09T20:58:35.320Z,5.50
2022-10-09T21:01:05.950Z,4.77
2022-10-09T21:03:34.536Z,6.47
2022-10-09T21:06:27.803Z,5.73
2022-10-09T21:08:58.138Z,6.07
2022-10-09T21:11:26.212Z,5.33
2022-10-09T21:13:54.256Z,4.30
2022-10-09T21:16:24.132Z,4.03
2022-10-09T21:18:55.249Z,4.20
2022-10-09T21:21:23.349Z,5.10
2022-10-09T21:23:51.913Z,4.70
2022-10-09T21:26:22.199Z,4.13
2022-10-09T21:28:52.442Z,4.13
2022-10-09T21:31:26.315Z,4.10
2022-10-09T21:33:54.287Z,4.13
2022-10-09T21:36:27.485Z,4.30
2022-10-09T21:38:55.466Z,3.70
2022-10-09T21:41:24.962Z,3.93
2022-10-09T21:43:52.958Z,3.90
2022-10-09T21:46:20.987Z,3.90
2022-10-09T21:48:48.965Z,3.90
2022-10-09T21:51:17.122Z,3.67
2022-10-09T21:53:45.159Z,4.17
2022-10-09T21:56:13.452Z,3.57
2022-10-09T21:58:48.130Z,4.07
2022-10-09T22:01:17.291Z,3.70
2022-10-09T22:03:45.468Z,3.83
2022-10-09T22:06:18.880Z,4.10
2022-10-09T22:08:47.982Z,3.80
2022-10-09T22:11:16.610Z,4.37
2022-10-09T22:13:46.096Z,4.07
2022-10-09T22:16:16.216Z,3.87
2022-10-09T22:18:44.571Z,4.70
2022-10-09T22:21:14.755Z,4.20
2022-10-09T22:23:43.060Z,4.03
2022-10-09T22:26:13.235Z,3.63
2022-10-09T22:28:41.362Z,4.10
2022-10-09T22:31:14.644Z,4.07
2022-10-09T22:33:43.215Z,4.27
2022-10-09T22:36:13.232Z,3.77
2022-10-09T22:38:41.938Z,4.00
2022-10-09T22:41:10.948Z,4.37
2022-10-09T22:43:40.193Z,4.57
2022-10-09T22:46:11.405Z,3.73
2022-10-09T22:48:40.486Z,3.70
2022-10-09T22:51:10.808Z,3.77
2022-10-09T22:53:39.739Z,4.30
2022-10-09T22:56:09.326Z,4.07
2022-10-09T22:58:37.334Z,4.00
2022-10-09T23:01:07.511Z,4.10
2022-10-09T23:03:36.912Z,4.20
2022-10-09T23:06:09.511Z,3.80
2022-10-09T23:08:38.734Z,4.20
2022-10-09T23:11:07.018Z,4.10
2022-10-09T23:13:35.361Z,3.90
2022-10-09T23:16:04.794Z,3.83
2022-10-09T23:18:33.371Z,4.07
2022-10-09T23:21:04.970Z,3.90
2022-10-09T23:23:34.074Z,4.20
2022-10-09T23:26:04.931Z,4.30
2022-10-09T23:28:33.013Z,3.90
2022-10-09T23:31:04.805Z,4.33
2022-10-09T23:33:32.850Z,4.13
2022-10-09T23:36:04.433Z,4.23
2022-10-09T23:38:32.418Z,4.43
2022-10-09T23:41:02.249Z,4.73
2022-10-09T23:43:30.872Z,6.33
2022-10-09T23:46:00.077Z,4.47
2022-10-09T23:48:28.668Z,4.77
2022-10-09T23:50:57.304Z,4.30
2022-10-09T23:53:27.494Z,4.70
2022-10-09T23:55:56.082Z,4.27
2022-10-09T23:58:24.574Z,4.50
